createdAt,value
2022-11-20T00:01:29.363Z,0.60
2022-11-20T00:03:58.678Z,0.60
2022-11-20T00:06:27.724Z,0.60
2022-11-20T00:08:57.594Z,0.60
2022-11-20T00:11:27.455Z,0.60
2022-11-20T00:14:00.502Z,0.60
2022-11-20T00:16:30.714Z,0.60
2022-11-20T00:18:58.142Z,0.60
2022-11-20T00:21:29.651Z,0.60
2022-11-20T00:23:57.847Z,0.60
2022-11-20T00:26:27.186Z,0.70
2022-11-20T00:29:00.006Z,0.60
2022-11-20T00:31:28.484Z,0.60
2022-11-20T00:33:56.129Z,0.70
2022-11-20T00:36:26.597Z,0.60
2022-11-20T00:38:58.850Z,0.60
2022-11-20T00:41:28.439Z,0.70
2022-11-20T00:43:56.702Z,0.70
2022-11-20T00:46:26.654Z,0.70
2022-11-20T00:48:54.330Z,0.60
2022-11-20T00:51:25.095Z,0.60
2022-11-20T00:53:52.547Z,0.60
2022-11-20T00:56:20.590Z,0.60
2022-11-20T00:58:49.624Z,0.60
2022-11-20T01:01:25.821Z,0.60
2022-11-20T01:03:55.700Z,0.60
2022-11-20T01:06:29.128Z,0.70
2022-11-20T01:08:58.717Z,0.70
2022-11-20T01:11:29.122Z,0.70
2022-11-20T01:13:58.126Z,0.80
2022-11-20T01:16:37.563Z,0.80
2022-11-20T01:19:07.215Z,0.90
2022-11-20T01:21:36.924Z,1.00
2022-11-20T01:24:06.454Z,1.10
2022-11-20T01:26:35.698Z,1.10
2022-11-20T01:29:04.608Z,1.20
2022-11-20T01:31:36.614Z,1.20
2022-11-20T01:34:16.508Z,1.20
2022-11-20T01:36:45.186Z,1.20
2022-11-20T01:39:18.988Z,1.20
2022-11-20T01:42:09.898Z,1.20
2022-11-20T01:44:54.330Z,1.20
2022-11-20T01:47:27.042Z,1.30
2022-11-20T01:50:00.571Z,1.30
2022-11-20T01:52:35.608Z,1.30
2022-11-20T01:55:06.871Z,1.40
2022-11-20T01:57:36.286Z,1.40
2022-11-20T02:00:11.959Z,1.50
2022-11-20T02:03:01.130Z,1.50
2022-11-20T02:05:33.949Z,1.50
2022-11-20T02:08:03.287Z,1.60
2022-11-20T02:10:31.002Z,1.60
2022-11-20T02:13:17.979Z,1.60
2022-11-20T02:15:46.203Z,1.60
2022-11-20T02:18:15.866Z,1.60
2022-11-20T02:20:46.062Z,1.60
2022-11-20T02:23:17.946Z,1.60
2022-11-20T02:25:48.235Z,1.70
2022-11-20T02:28:16.630Z,1.70
2022-11-20T02:30:43.891Z,1.70
2022-11-20T02:33:11.293Z,1.70
2022-11-20T02:35:43.525Z,1.80
2022-11-20T02:38:11.435Z,1.80
2022-11-20T02:40:38.902Z,1.80
2022-11-20T02:43:06.808Z,1.80
2022-11-20T02:45:34.495Z,1.90
2022-11-20T02:48:01.900Z,1.90
2022-11-20T02:50:29.121Z,1.90
2022-11-20T02:52:56.539Z,1.90
2022-11-20T02:55:23.909Z,2.00
2022-11-20T02:57:51.235Z,2.00
2022-11-20T03:00:18.831Z,2.00
2022-11-20T03:02:47.010Z,2.00
2022-11-20T03:05:14.413Z,2.00
2022-11-20T03:07:41.675Z,2.10
2022-11-20T03:10:09.322Z,2.10
2022-11-20T03:12:37.117Z,2.10
2022-11-20T03:15:04.827Z,2.20
2022-11-20T03:17:32.203Z,2.20
2022-11-20T03:19:59.443Z,2.20
2022-11-20T03:22:26.796Z,2.20
2022-11-20T03:24:54.028Z,2.20
2022-11-20T03:27:21.339Z,2.30
2022-11-20T03:29:48.930Z,2.20
2022-11-20T03:32:16.390Z,2.30
2022-11-20T03:34:43.609Z,2.30
2022-11-20T03:37:10.982Z,2.30
2022-11-20T03:39:38.660Z,2.40
2022-11-20T03:42:26.302Z,2.30
2022-11-20T03:44:53.529Z,2.40
2022-11-20T03:47:20.976Z,2.40
2022-11-20T03:49:48.423Z,2.40
2022-11-20T03:52:15.794Z,2.40
2022-11-20T03:54:43.027Z,2.40
2022-11-20T03:57:10.573Z,2.40
2022-11-20T03:59:37.767Z,2.40
2022-11-20T04:02:05.108Z,2.40
2022-11-20T04:04:32.410Z,2.40
2022-11-20T04:06:59.755Z,2.40
2022-11-20T04:09:27.059Z,2.40
2022-11-20T04:11:54.467Z,2.40
2022-11-20T04:14:21.764Z,2.50
2022-11-20T04:16:49.118Z,2.40
2022-11-20T04:19:17.319Z,2.40
2022-11-20T04:21:45.451Z,2.40
2022-11-20T04:24:13.091Z,2.50
2022-11-20T04:26:40.949Z,2.50
2022-11-20T04:29:12.347Z,2.50
2022-11-20T04:31:39.838Z,2.50
2022-11-20T04:34:08.203Z,2.50
2022-11-20T04:36:35.944Z,2.50
2022-11-20T04:39:05.815Z,2.50
2022-11-20T04:41:36.267Z,2.50
2022-11-20T04:44:05.403Z,2.50
2022-11-20T04:46:38.204Z,2.50
2022-11-20T04:49:06.047Z,2.50
2022-11-20T04:51:33.678Z,2.60
2022-11-20T04:54:01.684Z,2.60
2022-11-20T04:56:29.375Z,2.60
2022-11-20T04:58:56.832Z,2.60
2022-11-20T05:01:25.492Z,2.70
2022-11-20T05:03:53.159Z,2.70
2022-11-20T05:06:22.241Z,2.70
2022-11-20T05:08:49.977Z,2.70
2022-11-20T05:11:19.969Z,2.80
2022-11-20T05:13:47.881Z,2.80
2022-11-20T05:16:23.722Z,2.80
2022-11-20T05:18:52.935Z,2.80
2022-11-20T05:21:20.461Z,2.80
2022-11-20T05:23:48.003Z,2.90
2022-11-20T05:26:22.754Z,2.90
2022-11-20T05:28:51.168Z,2.90
2022-11-20T05:31:26.698Z,2.90
2022-11-20T05:33:55.610Z,2.90
2022-11-20T05:36:22.971Z,3.00
2022-11-20T05:38:51.136Z,3.00
2022-11-20T05:41:21.046Z,3.00
2022-11-20T05:43:49.659Z,3.00
2022-11-20T05:46:24.734Z,3.00
2022-11-20T05:48:56.110Z,3.00
2022-11-20T05:51:24.394Z,3.10
2022-11-20T05:53:51.795Z,3.10
2022-11-20T05:56:21.401Z,3.10
2022-11-20T05:58:49.588Z,3.10
2022-11-20T06:01:22.571Z,3.10
2022-11-20T06:03:51.390Z,3.10
2022-11-20T06:06:20.071Z,3.20
2022-11-20T06:08:47.624Z,3.20
2022-11-20T06:11:16.081Z,3.20
2022-11-20T06:13:43.384Z,3.20
2022-11-20T06:16:12.617Z,3.20
2022-11-20T06:18:40.288Z,3.30
2022-11-20T06:21:10.480Z,3.30
2022-11-20T06:23:38.363Z,3.30
2022-11-20T06:26:08.124Z,3.30
2022-11-20T06:28:35.841Z,3.30
2022-11-20T06:31:04.026Z,3.30
2022-11-20T06:33:31.375Z,3.40
2022-11-20T06:36:04.457Z,3.40
2022-11-20T06:38:34.610Z,3.40
2022-11-20T06:41:02.006Z,3.40
2022-11-20T06:43:30.561Z,3.50
2022-11-20T06:45:59.732Z,3.50
2022-11-20T06:48:28.620Z,3.50
2022-11-20T06:50:56.790Z,3.50
2022-11-20T06:53:24.713Z,3.50
2022-11-20T06:55:52.874Z,3.50
2022-11-20T06:58:20.373Z,3.60
2022-11-20T07:00:47.774Z,3.60
2022-11-20T07:03:15.214Z,3.60
2022-11-20T07:05:42.672Z,3.60
2022-11-20T07:08:10.058Z,3.60
2022-11-20T07:10:37.653Z,3.60
2022-11-20T07:13:05.328Z,3.60
2022-11-20T07:15:32.660Z,3.70
2022-11-20T07:18:01.169Z,3.70
2022-11-20T07:20:29.133Z,3.70
2022-11-20T07:22:57.809Z,3.70
2022-11-20T07:25:27.143Z,3.70
2022-11-20T07:28:01.592Z,3.70
2022-11-20T07:30:29.806Z,3.80
2022-11-20T07:32:58.074Z,3.80
2022-11-20T07:35:25.996Z,3.80
2022-11-20T07:37:53.403Z,3.80
2022-11-20T07:40:21.510Z,3.80
2022-11-20T07:42:53.684Z,3.80
2022-11-20T07:45:22.932Z,3.80
2022-11-20T07:47:50.477Z,3.80
2022-11-20T07:50:18.682Z,3.90
2022-11-20T07:52:46.104Z,3.90
2022-11-20T07:55:13.505Z,3.90
2022-11-20T07:57:41.190Z,4.00
2022-11-20T08:00:10.877Z,4.00
2022-11-20T08:02:42.392Z,4.00
2022-11-20T08:05:10.473Z,4.10
2022-11-20T08:07:43.050Z,4.10
2022-11-20T08:10:13.404Z,4.20
2022-11-20T08:13:07.327Z,4.20
2022-11-20T08:15:34.996Z,4.30
2022-11-20T08:21:02.083Z,4.40
2022-11-20T08:23:29.429Z,4.40
2022-11-20T08:25:58.353Z,4.50
2022-11-20T08:28:25.930Z,4.50
2022-11-20T08:31:02.402Z,4.50
2022-11-20T08:33:30.689Z,4.50
2022-11-20T08:36:05.150Z,4.60
2022-11-20T08:38:32.821Z,4.60
2022-11-20T08:41:20.409Z,4.60
2022-11-20T08:43:47.781Z,4.60
2022-11-20T08:46:15.394Z,4.70
2022-11-20T08:48:43.234Z,4.70
2022-11-20T08:51:11.319Z,4.70
2022-11-20T08:53:40.192Z,4.80
2022-11-20T08:56:07.943Z,4.80
2022-11-20T08:58:49.105Z,4.90
2022-11-20T09:01:24.165Z,4.90
2022-11-20T09:03:51.847Z,4.90
2022-11-20T09:06:19.431Z,4.90
2022-11-20T09:08:46.838Z,5.00
2022-11-20T09:11:14.163Z,5.00
2022-11-20T09:13:41.634Z,5.10
2022-11-20T09:16:09.855Z,5.10
2022-11-20T09:18:38.415Z,5.10
2022-11-20T09:21:11.197Z,5.20
2022-11-20T09:23:39.551Z,5.20
2022-11-20T09:26:11.877Z,5.30
2022-11-20T09:28:39.720Z,5.30
2022-11-20T09:31:20.611Z,5.30
2022-11-20T09:33:47.988Z,5.30
2022-11-20T09:36:15.444Z,5.30
2022-11-20T09:38:43.155Z,5.30
2022-11-20T09:41:34.859Z,5.30
2022-11-20T09:44:35.889Z,5.30
2022-11-20T09:47:36.698Z,5.20
2022-11-20T09:50:22.634Z,5.20
2022-11-20T09:52:50.055Z,5.20
2022-11-20T09:55:17.802Z,5.20
2022-11-20T09:57:48.010Z,5.10
2022-11-20T10:00:16.592Z,5.00
2022-11-20T10:02:44.380Z,4.90
2022-11-20T10:05:28.822Z,4.90
2022-11-20T10:08:10.950Z,4.90
2022-11-20T10:10:52.478Z,4.90
2022-11-20T10:13:35.195Z,4.90
2022-11-20T10:16:18.020Z,4.80
2022-11-20T10:19:01.903Z,4.90
2022-11-20T10:21:38.239Z,4.90
2022-11-20T10:24:20.693Z,5.00
2022-11-20T10:27:35.463Z,5.10
2022-11-20T10:30:12.266Z,5.20
2022-11-20T10:32:43.326Z,5.30
2022-11-20T10:35:38.088Z,5.40
2022-11-20T10:38:20.410Z,5.40
2022-11-20T10:40:53.990Z,5.50
2022-11-20T10:43:32.846Z,5.50
2022-11-20T10:46:05.461Z,5.50
2022-11-20T10:48:33.535Z,5.50
2022-11-20T10:51:06.273Z,5.60
2022-11-20T10:53:54.499Z,5.60
2022-11-20T10:56:22.030Z,5.60
2022-11-20T10:59:12.842Z,5.60
2022-11-20T11:01:43.155Z,5.60
2022-11-20T11:04:26.998Z,5.70
2022-11-20T11:07:02.147Z,5.70
2022-11-20T11:09:37.852Z,5.70
2022-11-20T11:12:09.977Z,5.70
2022-11-20T11:14:52.676Z,5.80
2022-11-20T11:17:30.241Z,5.80
2022-11-20T11:20:11.106Z,5.80
2022-11-20T11:22:48.605Z,5.90
2022-11-20T11:25:37.134Z,6.00
2022-11-20T11:28:18.357Z,6.00
2022-11-20T11:30:46.262Z,6.00
2022-11-20T11:33:21.938Z,6.00
2022-11-20T11:35:53.689Z,6.10
2022-11-20T11:38:37.109Z,6.10
2022-11-20T11:41:07.368Z,6.10
2022-11-20T11:43:56.210Z,6.10
2022-11-20T11:46:32.504Z,6.10
2022-11-20T11:49:16.979Z,6.10
2022-11-20T11:52:05.739Z,6.10
2022-11-20T11:54:46.263Z,6.10
2022-11-20T11:57:19.729Z,6.10
2022-11-20T12:00:05.538Z,6.10
2022-11-20T12:02:50.930Z,6.10
2022-11-20T12:05:23.049Z,6.10
2022-11-20T12:08:14.300Z,6.10
2022-11-20T12:10:48.267Z,6.10
2022-11-20T12:13:36.801Z,6.10
2022-11-20T12:16:05.706Z,6.10
2022-11-20T12:18:33.822Z,6.10
2022-11-20T12:21:19.218Z,6.20
2022-11-20T12:24:15.155Z,6.20
2022-11-20T12:27:06.404Z,6.20
2022-11-20T12:29:44.864Z,6.30
2022-11-20T12:32:31.105Z,6.30
2022-11-20T12:35:08.668Z,6.40
2022-11-20T12:38:16.592Z,6.40
2022-11-20T12:41:43.726Z,6.50
2022-11-20T12:45:11.007Z,6.50
2022-11-20T12:48:02.250Z,6.60
2022-11-20T12:51:13.954Z,6.60
2022-11-20T12:53:54.539Z,6.70
2022-11-20T12:56:43.862Z,6.70
2022-11-20T13:00:00.295Z,6.80
2022-11-20T13:02:41.853Z,6.80
2022-11-20T13:05:33.961Z,6.80
2022-11-20T13:08:02.949Z,6.80
2022-11-20T13:11:08.563Z,6.80
2022-11-20T13:13:50.535Z,6.70
2022-11-20T13:16:27.778Z,6.70
2022-11-20T13:18:55.179Z,6.70
2022-11-20T13:21:36.935Z,6.70
2022-11-20T13:24:06.945Z,6.70
2022-11-20T13:26:35.004Z,6.60
2022-11-20T13:29:16.595Z,6.60
2022-11-20T13:31:49.018Z,6.60
2022-11-20T13:34:27.850Z,6.70
2022-11-20T13:36:57.529Z,6.70
2022-11-20T13:39:29.857Z,6.70
2022-11-20T13:41:59.703Z,6.70
2022-11-20T13:44:40.527Z,6.60
2022-11-20T13:47:26.978Z,6.60
2022-11-20T13:50:00.129Z,6.60
2022-11-20T13:52:33.507Z,6.60
2022-11-20T13:55:37.767Z,6.50
2022-11-20T13:58:14.050Z,6.50
2022-11-20T14:00:56.094Z,6.50
2022-11-20T14:03:51.257Z,6.40
2022-11-20T14:06:23.079Z,6.50
2022-11-20T14:08:51.546Z,6.40
2022-11-20T14:11:18.968Z,6.40
2022-11-20T14:13:58.829Z,6.40
2022-11-20T14:16:29.292Z,6.40
2022-11-20T14:18:58.358Z,6.40
2022-11-20T14:21:30.786Z,6.30
2022-11-20T14:24:06.394Z,6.30
2022-11-20T14:26:34.959Z,6.30
2022-11-20T14:29:02.417Z,6.30
2022-11-20T14:31:29.930Z,6.30
2022-11-20T14:33:57.830Z,6.30
2022-11-20T14:36:26.667Z,6.30
2022-11-20T14:38:54.601Z,6.30
2022-11-20T14:41:24.102Z,6.30
2022-11-20T14:43:58.461Z,6.30
2022-11-20T14:46:26.891Z,6.30
2022-11-20T14:49:00.990Z,6.30
2022-11-20T14:51:42.452Z,6.30
2022-11-20T14:54:17.726Z,6.20
2022-11-20T14:57:00.035Z,6.20
2022-11-20T14:59:29.286Z,6.20
2022-11-20T15:02:06.779Z,6.20
2022-11-20T15:04:34.041Z,6.20
2022-11-20T15:07:01.345Z,6.20
2022-11-20T15:09:28.726Z,6.20
2022-11-20T15:12:01.171Z,6.30
2022-11-20T15:14:30.641Z,6.10
2022-11-20T15:16:57.994Z,6.10
2022-11-20T15:19:27.162Z,6.10
2022-11-20T15:21:54.525Z,6.10
2022-11-20T15:24:22.298Z,6.10
2022-11-20T15:26:50.048Z,6.10
2022-11-20T15:29:19.757Z,6.10
2022-11-20T15:31:47.233Z,6.10
2022-11-20T15:34:18.020Z,6.10
2022-11-20T15:36:45.326Z,6.10
2022-11-20T15:39:12.867Z,6.10
2022-11-20T15:41:40.814Z,6.10
2022-11-20T15:44:08.266Z,6.10
2022-11-20T15:46:43.303Z,6.10
2022-11-20T15:49:14.378Z,6.10
2022-11-20T15:51:44.667Z,6.10
2022-11-20T15:54:19.039Z,6.10
2022-11-20T15:56:47.853Z,6.10
2022-11-20T15:59:17.992Z,6.10
2022-11-20T16:01:45.446Z,6.00
2022-11-20T16:04:15.314Z,6.00
2022-11-20T16:06:43.095Z,6.00
2022-11-20T16:09:10.602Z,6.00
2022-11-20T16:11:38.499Z,6.00
2022-11-20T16:14:25.387Z,6.00
2022-11-20T16:16:53.182Z,6.00
2022-11-20T16:19:20.795Z,6.00
2022-11-20T16:21:48.131Z,6.00
2022-11-20T16:24:17.230Z,6.00
2022-11-20T16:26:44.803Z,6.00
2022-11-20T16:29:12.260Z,6.00
2022-11-20T16:31:39.643Z,6.00
2022-11-20T16:34:12.206Z,6.00
2022-11-20T16:36:42.855Z,6.00
2022-11-20T16:39:10.754Z,6.00
2022-11-20T16:41:38.442Z,6.00
2022-11-20T16:44:10.922Z,6.00
2022-11-20T16:46:39.068Z,6.00
2022-11-20T16:49:11.193Z,6.00
2022-11-20T16:51:38.768Z,6.00
2022-11-20T16:54:07.903Z,6.00
2022-11-20T16:56:36.088Z,6.00
2022-11-20T16:59:04.181Z,6.00
2022-11-20T17:01:31.918Z,6.00
2022-11-20T17:04:05.602Z,6.00
2022-11-20T17:06:39.023Z,6.00
2022-11-20T17:09:09.640Z,6.00
2022-11-20T17:11:38.028Z,6.00
2022-11-20T17:14:07.447Z,6.00
2022-11-20T17:16:36.365Z,5.90
2022-11-20T17:19:05.189Z,5.90
2022-11-20T17:21:36.127Z,5.90
2022-11-20T17:24:06.499Z,5.90
2022-11-20T17:26:35.027Z,5.90
2022-11-20T17:29:09.542Z,5.90
2022-11-20T17:31:40.490Z,5.90
2022-11-20T17:34:10.971Z,5.90
2022-11-20T17:36:44.826Z,5.90
2022-11-20T17:39:14.920Z,5.80
2022-11-20T17:41:42.327Z,5.80
2022-11-20T17:44:11.763Z,5.80
2022-11-20T17:46:39.133Z,5.80
2022-11-20T17:49:07.414Z,5.70
2022-11-20T17:51:35.617Z,5.70
2022-11-20T17:54:07.159Z,5.70
2022-11-20T17:56:54.890Z,5.70
2022-11-20T17:59:22.389Z,5.70
2022-11-20T18:01:49.908Z,5.80
2022-11-20T18:04:17.914Z,5.70
2022-11-20T18:06:47.786Z,5.80
2022-11-20T18:09:15.388Z,5.80
2022-11-20T18:11:43.739Z,5.70
2022-11-20T18:14:32.324Z,5.70
2022-11-20T18:17:12.039Z,5.70
2022-11-20T18:20:14.109Z,5.70
2022-11-20T18:22:38.120Z,5.70
2022-11-20T18:25:06.616Z,5.60
2022-11-20T18:27:33.946Z,5.60
2022-11-20T18:30:01.272Z,5.60
2022-11-20T18:32:28.603Z,5.70
2022-11-20T18:34:55.839Z,5.70
2022-11-20T18:37:23.205Z,5.70
2022-11-20T18:39:50.659Z,5.70
2022-11-20T18:42:37.111Z,5.70
2022-11-20T18:45:05.077Z,5.70
2022-11-20T18:47:37.845Z,5.70
2022-11-20T18:50:07.035Z,5.70
2022-11-20T18:52:47.793Z,5.70
2022-11-20T18:55:15.386Z,5.80
2022-11-20T18:57:42.801Z,5.80
2022-11-20T19:00:11.042Z,5.80
2022-11-20T19:02:42.270Z,5.80
2022-11-20T19:05:14.830Z,5.80
2022-11-20T19:07:43.082Z,5.80
2022-11-20T19:10:10.737Z,5.90
2022-11-20T19:12:38.339Z,5.90
2022-11-20T19:15:06.561Z,5.90
2022-11-20T19:17:34.047Z,5.90
2022-11-20T19:20:01.579Z,5.90
2022-11-20T19:22:28.966Z,5.90
2022-11-20T19:24:56.307Z,5.90
2022-11-20T19:27:23.784Z,5.90
2022-11-20T19:29:51.295Z,5.90
2022-11-20T19:32:18.773Z,5.90
2022-11-20T19:34:46.202Z,5.80
2022-11-20T19:37:13.728Z,5.80
2022-11-20T19:39:40.970Z,5.80
2022-11-20T19:42:08.419Z,5.80
2022-11-20T19:44:35.798Z,5.80
2022-11-20T19:47:09.024Z,5.70
2022-11-20T19:49:41.596Z,5.70
2022-11-20T19:52:09.407Z,5.70
2022-11-20T19:54:36.655Z,5.70
2022-11-20T19:57:04.003Z,5.70
2022-11-20T19:59:31.433Z,5.70
2022-11-20T20:01:58.825Z,5.70
2022-11-20T20:04:26.108Z,5.70
2022-11-20T20:06:53.409Z,5.70
2022-11-20T20:09:23.599Z,5.70
2022-11-20T20:11:51.239Z,5.70
2022-11-20T20:14:19.130Z,5.60
2022-11-20T20:16:46.963Z,5.60
2022-11-20T20:19:15.605Z,5.60
2022-11-20T20:21:44.064Z,5.70
2022-11-20T20:24:11.760Z,5.70
2022-11-20T20:26:39.559Z,5.70
2022-11-20T20:29:07.124Z,5.70
2022-11-20T20:31:35.647Z,5.70
2022-11-20T20:34:05.206Z,5.80
2022-11-20T20:36:32.939Z,5.80
2022-11-20T20:39:00.253Z,5.90
2022-11-20T20:41:27.734Z,5.90
2022-11-20T20:44:14.058Z,5.90
2022-11-20T20:46:41.526Z,5.90
2022-11-20T20:49:09.673Z,6.00
2022-11-20T20:51:37.157Z,6.00
2022-11-20T20:54:05.047Z,6.00
2022-11-20T20:56:32.458Z,6.10
2022-11-20T20:58:59.922Z,6.10
2022-11-20T21:01:30.494Z,6.10
2022-11-20T21:03:58.264Z,6.10
2022-11-20T21:06:26.168Z,6.20
2022-11-20T21:08:54.076Z,6.20
2022-11-20T21:11:21.403Z,6.20
2022-11-20T21:13:49.294Z,6.20
2022-11-20T21:16:20.552Z,6.30
2022-11-20T21:18:48.191Z,6.30
2022-11-20T21:21:35.138Z,6.30
2022-11-20T21:24:03.137Z,6.30
2022-11-20T21:26:30.410Z,6.30
2022-11-20T21:28:57.967Z,6.40
2022-11-20T21:31:26.594Z,6.40
2022-11-20T21:33:55.821Z,6.40
2022-11-20T21:36:25.779Z,6.40
2022-11-20T21:38:54.880Z,6.50
2022-11-20T21:41:23.133Z,6.50
2022-11-20T21:44:24.051Z,6.50
2022-11-20T21:46:44.166Z,6.60
2022-11-20T21:49:12.427Z,6.60
2022-11-20T21:51:40.167Z,6.60
2022-11-20T21:54:07.575Z,6.60
2022-11-20T21:56:34.782Z,6.60
2022-11-20T21:59:02.173Z,6.60
2022-11-20T22:01:30.741Z,6.60
2022-11-20T22:04:00.887Z,6.60
2022-11-20T22:06:33.494Z,6.60
2022-11-20T22:09:02.346Z,6.70
2022-11-20T22:11:29.798Z,6.70
2022-11-20T22:14:16.187Z,6.70
2022-11-20T22:16:43.542Z,6.70
2022-11-20T22:19:10.935Z,6.70
2022-11-20T22:21:39.489Z,6.60
2022-11-20T22:24:06.855Z,6.60
2022-11-20T22:26:40.156Z,6.60
2022-11-20T22:29:08.399Z,6.60
2022-11-20T22:31:35.713Z,6.60
2022-11-20T22:34:03.396Z,6.60
2022-11-20T22:36:31.931Z,6.60
2022-11-20T22:39:01.873Z,6.60
2022-11-20T22:41:29.660Z,6.70
2022-11-20T22:43:59.402Z,6.70
2022-11-20T22:46:28.582Z,6.70
2022-11-20T22:48:57.874Z,6.70
2022-11-20T22:51:33.953Z,6.70
2022-11-20T22:54:03.524Z,6.70
2022-11-20T22:56:31.619Z,6.70
2022-11-20T22:58:59.000Z,6.70
2022-11-20T23:01:34.340Z,6.70
2022-11-20T23:04:04.722Z,6.70
2022-11-20T23:06:35.642Z,6.70
2022-11-20T23:09:04.759Z,6.70
2022-11-20T23:11:32.855Z,6.70
2022-11-20T23:14:06.517Z,6.70
2022-11-20T23:16:35.130Z,6.70
2022-11-20T23:19:08.065Z,6.70
2022-11-20T23:21:37.428Z,6.70
2022-11-20T23:24:05.646Z,6.70
2022-11-20T23:26:36.349Z,6.70
2022-11-20T23:29:05.359Z,6.70
2022-11-20T23:31:34.922Z,6.70
2022-11-20T23:34:02.525Z,6.70
2022-11-20T23:36:30.250Z,6.70
2022-11-20T23:38:57.492Z,6.70
2022-11-20T23:41:24.862Z,6.70
2022-11-20T23:43:53.284Z,6.70
2022-11-20T23:46:20.979Z,6.70
2022-11-20T23:48:48.241Z,6.70
2022-11-20T23:51:15.543Z,6.70
2022-11-20T23:53:42.965Z,6.70
2022-11-20T23:56:11.502Z,6.80
2022-11-20T23:58:39.319Z,6.80
